createdAt,value
2023-06-03T00:00:59.773Z,7.20
2023-06-03T00:03:29.291Z,7.10
2023-06-03T00:05:58.780Z,7.00
2023-06-03T00:08:26.952Z,7.00
2023-06-03T00:10:55.381Z,7.10
2023-06-03T00:13:23.495Z,7.10
2023-06-03T00:15:51.816Z,7.00
2023-06-03T00:18:19.946Z,7.00
2023-06-03T00:20:49.012Z,7.00
2023-06-03T00:23:18.866Z,6.90
2023-06-03T00:25:46.983Z,6.90
2023-06-03T00:28:15.206Z,6.90
2023-06-03T00:30:43.494Z,6.80
2023-06-03T00:33:11.763Z,6.80
2023-06-03T00:35:39.992Z,6.80
2023-06-03T00:38:08.106Z,6.80
2023-06-03T00:40:37.573Z,6.80
2023-06-03T00:43:05.876Z,6.70
2023-06-03T00:45:33.919Z,6.70
2023-06-03T00:48:02.287Z,6.70
2023-06-03T00:50:30.970Z,6.80
2023-06-03T00:53:00.060Z,6.60
2023-06-03T00:55:28.317Z,6.60
2023-06-03T00:57:58.016Z,6.50
2023-06-03T01:00:26.248Z,6.50
2023-06-03T01:02:57.332Z,6.30
2023-06-03T01:05:25.977Z,6.30
2023-06-03T01:08:02.676Z,6.30
2023-06-03T01:10:47.339Z,6.20
2023-06-03T01:13:24.287Z,6.30
2023-06-03T01:15:55.888Z,6.20
2023-06-03T01:18:24.600Z,6.20
2023-06-03T01:20:54.608Z,6.20
2023-06-03T01:23:30.066Z,6.10
2023-06-03T01:25:58.991Z,6.10
2023-06-03T01:28:28.830Z,6.00
2023-06-03T01:30:57.957Z,6.00
2023-06-03T01:33:29.411Z,5.90
2023-06-03T01:36:07.305Z,5.70
2023-06-03T01:38:37.326Z,5.60
2023-06-03T01:41:06.678Z,5.50
2023-06-03T01:43:35.318Z,5.40
2023-06-03T01:46:03.866Z,5.40
2023-06-03T01:48:32.145Z,5.50
2023-06-03T01:51:00.706Z,5.40
2023-06-03T01:53:29.839Z,5.40
2023-06-03T01:56:00.226Z,5.40
2023-06-03T01:58:28.281Z,5.40
2023-06-03T02:00:56.534Z,5.30
2023-06-03T02:03:24.804Z,5.20
2023-06-03T02:05:52.917Z,5.20
2023-06-03T02:08:21.583Z,5.10
2023-06-03T02:10:49.666Z,5.10
2023-06-03T02:13:19.160Z,5.10
2023-06-03T02:15:47.286Z,5.10
2023-06-03T02:18:15.509Z,5.00
2023-06-03T02:20:43.886Z,5.10
2023-06-03T02:23:12.806Z,5.20
2023-06-03T02:25:42.129Z,5.20
2023-06-03T02:28:10.456Z,5.20
2023-06-03T02:30:40.111Z,5.20
2023-06-03T02:33:08.843Z,5.20
2023-06-03T02:35:37.368Z,5.20
2023-06-03T02:38:05.550Z,5.20
2023-06-03T02:40:33.643Z,5.10
2023-06-03T02:43:01.767Z,5.20
2023-06-03T02:45:31.034Z,5.10
2023-06-03T02:48:00.609Z,5.10
2023-06-03T02:50:28.798Z,5.00
2023-06-03T02:52:58.569Z,4.90
2023-06-03T02:55:28.449Z,4.90
2023-06-03T02:57:56.727Z,5.00
2023-06-03T03:00:24.745Z,5.00
2023-06-03T03:02:54.208Z,5.20
2023-06-03T03:05:25.000Z,5.10
2023-06-03T03:07:53.084Z,5.10
2023-06-03T03:10:22.079Z,5.20
2023-06-03T03:12:50.118Z,5.10
2023-06-03T03:15:18.929Z,5.10
2023-06-03T03:17:47.251Z,5.00
2023-06-03T03:20:15.534Z,5.00
2023-06-03T03:22:46.368Z,5.00
2023-06-03T03:25:18.673Z,5.00
2023-06-03T03:27:47.527Z,5.00
2023-06-03T03:30:16.132Z,5.00
2023-06-03T03:32:45.069Z,5.00
2023-06-03T03:35:17.984Z,5.00
2023-06-03T03:37:58.253Z,5.10
2023-06-03T03:40:27.324Z,5.10
2023-06-03T03:42:59.059Z,5.10
2023-06-03T03:45:32.318Z,5.20
2023-06-03T03:48:03.598Z,5.20
2023-06-03T03:50:41.397Z,5.20
2023-06-03T03:53:13.914Z,5.40
2023-06-03T03:55:44.733Z,5.50
2023-06-03T03:58:41.745Z,5.60
2023-06-03T04:01:14.664Z,5.70
2023-06-03T04:03:46.754Z,5.80
2023-06-03T04:06:29.818Z,5.90
2023-06-03T04:08:59.515Z,6.00
2023-06-03T04:11:31.156Z,6.10
2023-06-03T04:14:00.453Z,6.10
2023-06-03T04:16:50.110Z,6.30
2023-06-03T04:19:32.225Z,6.30
2023-06-03T04:22:02.116Z,6.50
2023-06-03T04:24:31.972Z,6.50
2023-06-03T04:27:00.463Z,6.60
2023-06-03T04:29:28.670Z,6.70
2023-06-03T04:31:57.135Z,6.90
2023-06-03T04:34:29.533Z,6.80
2023-06-03T04:36:59.298Z,7.00
2023-06-03T04:39:28.566Z,7.10
2023-06-03T04:42:09.107Z,7.20
2023-06-03T04:44:39.125Z,7.30
2023-06-03T04:47:11.878Z,7.40
2023-06-03T04:49:41.220Z,7.50
2023-06-03T04:52:11.758Z,7.50
2023-06-03T04:54:44.541Z,7.60
2023-06-03T04:57:16.813Z,7.70
2023-06-03T04:59:45.301Z,7.80
2023-06-03T05:02:17.796Z,7.90
2023-06-03T05:04:47.707Z,7.90
2023-06-03T05:07:16.837Z,7.90
2023-06-03T05:09:45.795Z,8.00
2023-06-03T05:12:16.309Z,8.10
2023-06-03T05:14:45.422Z,8.30
2023-06-03T05:17:14.543Z,8.40
2023-06-03T05:19:42.752Z,8.50
2023-06-03T05:22:10.935Z,8.60
2023-06-03T05:24:39.217Z,8.70
2023-06-03T05:27:08.054Z,8.80
2023-06-03T05:29:37.776Z,8.90
2023-06-03T05:32:07.378Z,8.90
2023-06-03T05:34:36.607Z,9.00
2023-06-03T05:37:05.616Z,9.10
2023-06-03T05:39:33.729Z,9.20
2023-06-03T05:42:02.714Z,9.30
2023-06-03T05:44:31.431Z,9.30
2023-06-03T05:47:00.986Z,9.40
2023-06-03T05:49:29.518Z,9.40
2023-06-03T05:51:57.619Z,9.70
2023-06-03T05:54:29.375Z,9.70
2023-06-03T05:56:59.784Z,9.70
2023-06-03T05:59:30.840Z,9.70
2023-06-03T06:02:01.107Z,9.80
2023-06-03T06:04:29.201Z,9.90
2023-06-03T06:06:57.573Z,10.00
2023-06-03T06:09:26.152Z,10.10
2023-06-03T06:11:55.602Z,10.30
2023-06-03T06:14:23.957Z,10.30
2023-06-03T06:16:53.886Z,10.20
2023-06-03T06:19:24.367Z,10.30
2023-06-03T06:21:54.038Z,10.40
2023-06-03T06:24:22.248Z,10.50
2023-06-03T06:26:51.554Z,10.60
2023-06-03T06:29:20.272Z,10.70
2023-06-03T06:31:48.942Z,10.70
2023-06-03T06:34:19.322Z,10.70
2023-06-03T06:36:53.542Z,10.80
2023-06-03T06:39:47.958Z,10.90
2023-06-03T06:42:43.267Z,11.10
2023-06-03T06:45:24.608Z,11.10
2023-06-03T06:48:03.836Z,11.10
2023-06-03T06:50:46.023Z,11.20
2023-06-03T06:53:15.914Z,11.20
2023-06-03T06:55:50.657Z,11.20
2023-06-03T06:58:23.236Z,11.30
2023-06-03T07:00:52.667Z,11.40
2023-06-03T07:03:22.031Z,11.60
2023-06-03T07:05:53.608Z,11.70
2023-06-03T07:08:25.688Z,11.80
2023-06-03T07:10:58.011Z,12.00
2023-06-03T07:13:26.903Z,12.10
2023-06-03T07:15:56.961Z,12.20
2023-06-03T07:18:27.211Z,12.10
2023-06-03T07:20:56.187Z,12.10
2023-06-03T07:23:29.080Z,12.20
2023-06-03T07:25:59.053Z,12.30
2023-06-03T07:28:32.213Z,12.30
2023-06-03T07:31:08.663Z,12.20
2023-06-03T07:33:42.652Z,12.40
2023-06-03T07:36:11.127Z,12.60
2023-06-03T07:39:01.905Z,13.00
2023-06-03T07:41:42.721Z,13.20
2023-06-03T07:44:24.861Z,13.60
2023-06-03T07:46:58.248Z,14.00
2023-06-03T07:49:26.448Z,14.10
2023-06-03T07:51:56.313Z,14.40
2023-06-03T07:54:26.255Z,14.30
2023-06-03T07:56:56.847Z,14.00
2023-06-03T07:59:25.303Z,14.00
2023-06-03T08:01:54.850Z,14.30
2023-06-03T08:04:31.025Z,14.70
2023-06-03T08:07:01.647Z,14.80
2023-06-03T08:09:34.836Z,14.70
2023-06-03T08:12:04.085Z,15.20
2023-06-03T08:14:34.868Z,15.60
2023-06-03T08:17:06.060Z,15.80
2023-06-03T08:19:35.456Z,16.10
2023-06-03T08:22:04.211Z,15.90
2023-06-03T08:24:33.732Z,16.10
2023-06-03T08:27:01.831Z,16.10
2023-06-03T08:29:29.939Z,16.20
2023-06-03T08:31:57.993Z,16.30
2023-06-03T08:34:26.313Z,15.80
2023-06-03T08:36:54.936Z,15.60
2023-06-03T08:39:23.796Z,15.40
2023-06-03T08:42:00.375Z,15.70
2023-06-03T08:44:36.294Z,16.30
2023-06-03T08:47:13.972Z,16.80
2023-06-03T08:49:59.369Z,16.80
2023-06-03T08:52:29.776Z,16.30
2023-06-03T08:55:02.031Z,16.30
2023-06-03T08:57:35.947Z,16.70
2023-06-03T09:00:06.672Z,17.00
2023-06-03T09:02:36.477Z,17.30
2023-06-03T09:05:06.588Z,17.90
2023-06-03T09:07:35.752Z,18.00
2023-06-03T09:10:04.718Z,17.90
2023-06-03T09:12:35.918Z,18.50
2023-06-03T09:15:05.249Z,18.30
2023-06-03T09:17:34.256Z,19.20
2023-06-03T09:20:03.570Z,18.80
2023-06-03T09:22:32.578Z,18.30
2023-06-03T09:25:00.853Z,18.50
2023-06-03T09:27:29.064Z,18.40
2023-06-03T09:29:58.985Z,18.50
2023-06-03T09:32:27.610Z,18.60
2023-06-03T09:34:56.400Z,18.50
2023-06-03T09:37:30.359Z,18.70
2023-06-03T09:40:01.494Z,18.80
2023-06-03T09:42:43.311Z,18.80
2023-06-03T09:45:25.471Z,18.80
2023-06-03T09:47:54.577Z,18.90
2023-06-03T09:50:25.033Z,18.60
2023-06-03T09:52:53.233Z,18.90
2023-06-03T09:55:24.163Z,19.40
2023-06-03T09:58:05.948Z,19.60
2023-06-03T10:00:48.850Z,19.80
2023-06-03T10:03:21.043Z,18.90
2023-06-03T10:05:49.192Z,18.80
2023-06-03T10:08:29.731Z,19.50
2023-06-03T10:10:59.276Z,19.30
2023-06-03T10:13:28.201Z,19.40
2023-06-03T10:15:59.516Z,19.50
2023-06-03T10:18:38.811Z,19.70
2023-06-03T10:21:08.628Z,19.30
2023-06-03T10:23:40.108Z,19.20
2023-06-03T10:26:08.855Z,19.40
2023-06-03T10:28:38.230Z,19.00
2023-06-03T10:31:09.250Z,19.40
2023-06-03T10:33:38.989Z,19.60
2023-06-03T10:36:08.356Z,20.00
2023-06-03T10:38:37.918Z,20.00
2023-06-03T10:41:06.975Z,19.60
2023-06-03T10:43:36.504Z,19.50
2023-06-03T10:46:05.278Z,19.50
2023-06-03T10:48:35.726Z,20.30
2023-06-03T10:51:17.344Z,21.00
2023-06-03T10:53:56.661Z,21.40
2023-06-03T10:56:32.804Z,20.50
2023-06-03T10:59:04.302Z,20.80
2023-06-03T11:01:58.921Z,20.90
2023-06-03T11:04:29.559Z,20.70
2023-06-03T11:06:58.434Z,20.50
2023-06-03T11:09:35.919Z,20.80
2023-06-03T11:12:08.209Z,20.90
2023-06-03T11:14:57.053Z,21.30
2023-06-03T11:17:26.637Z,21.90
2023-06-03T11:19:58.085Z,21.70
2023-06-03T11:22:43.200Z,20.80
2023-06-03T11:25:28.694Z,20.70
2023-06-03T11:28:35.943Z,20.70
2023-06-03T11:31:12.642Z,20.80
2023-06-03T11:33:40.793Z,20.60
2023-06-03T11:36:46.604Z,20.80
2023-06-03T11:39:16.339Z,20.60
2023-06-03T11:42:09.577Z,20.80
2023-06-03T11:44:40.165Z,21.20
2023-06-03T11:47:08.801Z,21.10
2023-06-03T11:49:39.301Z,21.00
2023-06-03T11:52:08.872Z,21.40
2023-06-03T11:54:39.032Z,21.00
2023-06-03T11:57:09.459Z,21.40
2023-06-03T11:59:42.785Z,21.20
2023-06-03T12:02:12.030Z,21.80
2023-06-03T12:04:40.512Z,21.60
2023-06-03T12:07:13.176Z,21.40
2023-06-03T12:09:42.535Z,21.30
2023-06-03T12:12:14.768Z,21.20
2023-06-03T12:14:44.026Z,21.40
2023-06-03T12:17:14.698Z,20.40
2023-06-03T12:19:45.036Z,21.00
2023-06-03T12:22:13.540Z,21.10
2023-06-03T12:24:46.340Z,21.20
2023-06-03T12:27:23.550Z,21.50
2023-06-03T12:29:54.232Z,21.80
2023-06-03T12:32:22.643Z,22.10
2023-06-03T12:34:51.362Z,22.40
2023-06-03T12:37:28.966Z,22.10
2023-06-03T12:39:59.412Z,21.50
2023-06-03T12:42:38.522Z,21.50
2023-06-03T12:45:08.217Z,21.90
2023-06-03T12:47:47.703Z,22.00
2023-06-03T12:50:17.557Z,22.80
2023-06-03T12:52:45.947Z,23.20
2023-06-03T12:55:18.350Z,23.30
2023-06-03T12:57:47.984Z,22.80
2023-06-03T13:00:20.011Z,22.40
2023-06-03T13:02:50.373Z,22.50
2023-06-03T13:05:18.876Z,22.90
2023-06-03T13:07:47.156Z,22.70
2023-06-03T13:10:18.015Z,23.30
2023-06-03T13:12:48.304Z,23.00
2023-06-03T13:15:17.263Z,22.90
2023-06-03T13:17:45.400Z,22.70
2023-06-03T13:20:13.677Z,21.80
2023-06-03T13:22:42.983Z,21.70
2023-06-03T13:25:11.656Z,21.80
2023-06-03T13:27:43.052Z,21.70
2023-06-03T13:30:12.957Z,21.20
2023-06-03T13:32:41.655Z,21.80
2023-06-03T13:35:10.694Z,21.80
2023-06-03T13:37:39.029Z,22.30
2023-06-03T13:40:09.024Z,22.60
2023-06-03T13:42:37.198Z,22.20
2023-06-03T13:45:09.030Z,21.50
2023-06-03T13:47:38.236Z,22.20
2023-06-03T13:50:07.667Z,22.20
2023-06-03T13:52:36.211Z,22.30
2023-06-03T13:55:04.544Z,22.30
2023-06-03T13:57:32.649Z,22.60
2023-06-03T14:00:01.010Z,22.30
2023-06-03T14:02:30.456Z,21.40
2023-06-03T14:04:58.610Z,21.50
2023-06-03T14:07:26.972Z,22.50
2023-06-03T14:09:55.114Z,23.00
2023-06-03T14:12:24.819Z,23.50
2023-06-03T14:14:53.298Z,23.00
2023-06-03T14:17:23.339Z,22.30
2023-06-03T14:19:53.186Z,22.00
2023-06-03T14:22:22.824Z,22.00
2023-06-03T14:24:53.308Z,21.70
2023-06-03T14:27:22.163Z,22.00
2023-06-03T14:29:50.326Z,22.20
2023-06-03T14:32:20.806Z,22.50
2023-06-03T14:34:49.385Z,22.60
2023-06-03T14:37:18.975Z,21.50
2023-06-03T14:39:47.765Z,21.40
2023-06-03T14:42:16.653Z,21.30
2023-06-03T14:44:56.292Z,21.10
2023-06-03T14:47:28.973Z,21.30
2023-06-03T14:49:57.736Z,21.00
2023-06-03T14:52:27.666Z,21.70
2023-06-03T14:54:56.174Z,21.80
2023-06-03T14:57:24.576Z,21.80
2023-06-03T14:59:52.678Z,22.10
2023-06-03T15:02:21.194Z,22.40
2023-06-03T15:04:49.393Z,22.60
2023-06-03T15:07:17.933Z,22.20
2023-06-03T15:09:47.421Z,21.50
2023-06-03T15:12:17.128Z,21.50
2023-06-03T15:14:46.753Z,21.30
2023-06-03T15:17:14.825Z,21.90
2023-06-03T15:19:42.864Z,22.00
2023-06-03T15:22:11.353Z,22.20
2023-06-03T15:24:39.610Z,22.00
2023-06-03T15:27:09.693Z,22.60
2023-06-03T15:29:41.072Z,22.80
2023-06-03T15:32:10.195Z,22.70
2023-06-03T15:34:38.214Z,22.80
2023-06-03T15:37:06.568Z,22.80
2023-06-03T15:39:34.621Z,22.60
2023-06-03T15:42:04.025Z,23.00
2023-06-03T15:44:35.557Z,22.70
2023-06-03T15:47:05.015Z,22.00
2023-06-03T15:49:33.421Z,21.60
2023-06-03T15:52:01.552Z,21.20
2023-06-03T15:54:29.788Z,21.20
2023-06-03T15:56:58.189Z,21.70
2023-06-03T15:59:27.272Z,21.70
2023-06-03T16:01:56.946Z,21.20
2023-06-03T16:04:26.805Z,20.80
2023-06-03T16:06:55.896Z,21.40
2023-06-03T16:09:24.171Z,21.90
2023-06-03T16:11:52.249Z,21.80
2023-06-03T16:14:20.450Z,21.70
2023-06-03T16:16:48.529Z,21.60
2023-06-03T16:19:18.006Z,21.00
2023-06-03T16:21:47.221Z,20.70
2023-06-03T16:24:17.528Z,20.60
2023-06-03T16:26:46.127Z,20.50
2023-06-03T16:29:14.477Z,20.50
2023-06-03T16:31:42.784Z,20.40
2023-06-03T16:34:11.316Z,20.20
2023-06-03T16:36:40.838Z,19.90
2023-06-03T16:39:08.918Z,19.80
2023-06-03T16:41:37.225Z,19.50
2023-06-03T16:44:05.335Z,19.50
2023-06-03T16:46:33.948Z,19.30
2023-06-03T16:49:02.998Z,19.10
2023-06-03T16:51:31.200Z,18.80
2023-06-03T16:54:00.649Z,18.70
2023-06-03T16:56:29.090Z,18.60
2023-06-03T16:58:57.472Z,18.50
2023-06-03T17:01:25.954Z,18.40
2023-06-03T17:03:54.100Z,18.20
2023-06-03T17:06:22.349Z,18.20
2023-06-03T17:08:51.859Z,18.00
2023-06-03T17:11:21.639Z,17.80
2023-06-03T17:13:50.010Z,17.80
2023-06-03T17:16:18.104Z,17.70
2023-06-03T17:18:46.472Z,17.60
2023-06-03T17:21:14.621Z,17.60
2023-06-03T17:23:42.805Z,17.50
2023-06-03T17:26:11.320Z,17.40
2023-06-03T17:28:40.970Z,17.40
2023-06-03T17:31:09.595Z,17.30
2023-06-03T17:33:38.652Z,17.30
2023-06-03T17:36:07.278Z,17.20
2023-06-03T17:38:35.428Z,17.20
2023-06-03T17:41:03.529Z,17.10
2023-06-03T17:43:31.653Z,17.00
2023-06-03T17:46:01.076Z,16.90
2023-06-03T17:48:29.356Z,16.90
2023-06-03T17:50:57.687Z,16.70
2023-06-03T17:53:25.708Z,16.70
2023-06-03T17:55:54.098Z,16.60
2023-06-03T17:58:22.234Z,16.50
2023-06-03T18:00:50.570Z,16.50
2023-06-03T18:03:20.051Z,16.40
2023-06-03T18:05:48.189Z,16.40
2023-06-03T18:08:16.400Z,16.30
2023-06-03T18:10:44.712Z,16.10
2023-06-03T18:13:12.797Z,16.10
2023-06-03T18:15:41.069Z,16.00
2023-06-03T18:18:10.666Z,15.90
2023-06-03T18:20:41.036Z,15.70
2023-06-03T18:23:09.548Z,15.60
2023-06-03T18:25:39.810Z,15.60
2023-06-03T18:28:08.949Z,15.40
2023-06-03T18:30:37.750Z,15.40
2023-06-03T18:33:06.046Z,15.30
2023-06-03T18:35:34.214Z,15.20
2023-06-03T18:38:04.170Z,15.10
2023-06-03T18:40:32.558Z,15.00
2023-06-03T18:43:00.718Z,14.90
2023-06-03T18:45:28.990Z,14.90
2023-06-03T18:47:57.170Z,14.80
2023-06-03T18:50:25.305Z,14.70
2023-06-03T18:52:54.016Z,14.60
2023-06-03T18:55:23.696Z,14.50
2023-06-03T18:57:56.084Z,14.40
2023-06-03T19:00:34.466Z,14.30
2023-06-03T19:03:13.861Z,14.20
2023-06-03T19:05:50.626Z,14.20
2023-06-03T19:08:20.992Z,14.10
2023-06-03T19:10:50.855Z,14.00
2023-06-03T19:13:20.304Z,13.90
2023-06-03T19:15:48.934Z,13.80
2023-06-03T19:18:17.404Z,13.70
2023-06-03T19:20:48.238Z,13.70
2023-06-03T19:23:16.689Z,13.60
2023-06-03T19:25:45.512Z,13.50
2023-06-03T19:28:14.964Z,13.50
2023-06-03T19:30:43.496Z,13.40
2023-06-03T19:33:12.139Z,13.30
2023-06-03T19:35:40.344Z,13.20
2023-06-03T19:38:08.506Z,13.20
2023-06-03T19:40:37.038Z,13.10
2023-06-03T19:43:05.127Z,13.00
2023-06-03T19:45:34.767Z,12.90
2023-06-03T19:48:02.995Z,12.90
2023-06-03T19:50:32.233Z,12.80
2023-06-03T19:53:00.741Z,12.80
2023-06-03T19:55:28.956Z,12.70
2023-06-03T19:57:57.089Z,12.70
2023-06-03T20:00:25.326Z,12.60
2023-06-03T20:02:55.098Z,12.60
2023-06-03T20:05:23.430Z,12.50
2023-06-03T20:07:51.460Z,12.30
2023-06-03T20:10:19.718Z,12.30
2023-06-03T20:12:47.957Z,12.20
2023-06-03T20:15:17.113Z,12.20
2023-06-03T20:17:45.687Z,12.10
2023-06-03T20:20:17.699Z,12.00
2023-06-03T20:22:46.055Z,11.90
2023-06-03T20:25:14.492Z,11.80
2023-06-03T20:27:42.616Z,11.70
2023-06-03T20:30:11.712Z,11.70
2023-06-03T20:32:39.914Z,11.70
2023-06-03T20:35:09.167Z,11.60
2023-06-03T20:37:38.663Z,11.60
2023-06-03T20:40:07.927Z,11.50
2023-06-03T20:42:36.416Z,11.40
2023-06-03T20:45:06.340Z,11.40
2023-06-03T20:47:34.531Z,11.40
2023-06-03T20:50:02.621Z,11.30
2023-06-03T20:52:31.170Z,11.30
2023-06-03T20:55:00.749Z,11.30
2023-06-03T20:57:28.817Z,11.20
2023-06-03T20:59:56.897Z,11.20
2023-06-03T21:02:25.053Z,11.10
2023-06-03T21:04:53.174Z,11.10
2023-06-03T21:07:21.356Z,11.10
2023-06-03T21:09:49.511Z,11.10
2023-06-03T21:12:19.941Z,11.00
2023-06-03T21:14:51.821Z,11.00
2023-06-03T21:17:21.225Z,10.90
2023-06-03T21:19:49.476Z,10.80
2023-06-03T21:22:18.421Z,10.80
2023-06-03T21:24:46.660Z,10.70
2023-06-03T21:27:15.264Z,10.60
2023-06-03T21:29:44.852Z,10.50
2023-06-03T21:32:13.122Z,10.40
2023-06-03T21:34:41.250Z,10.40
2023-06-03T21:37:09.409Z,10.30
2023-06-03T21:39:37.494Z,10.40
2023-06-03T21:42:06.598Z,10.30
2023-06-03T21:44:34.673Z,10.20
2023-06-03T21:47:04.174Z,10.10
2023-06-03T21:49:32.280Z,10.00
2023-06-03T21:52:00.409Z,10.00
2023-06-03T21:54:28.457Z,10.00
2023-06-03T21:56:56.502Z,10.00
2023-06-03T21:59:24.683Z,9.90
2023-06-03T22:01:52.865Z,9.80
2023-06-03T22:04:22.358Z,9.80
2023-06-03T22:06:50.398Z,9.70
2023-06-03T22:09:18.522Z,9.70
2023-06-03T22:11:47.248Z,9.60
2023-06-03T22:14:15.299Z,9.60
2023-06-03T22:16:43.359Z,9.50
2023-06-03T22:19:11.376Z,9.50
2023-06-03T22:21:41.325Z,9.50
2023-06-03T22:24:09.508Z,9.50
2023-06-03T22:26:37.576Z,9.50
2023-06-03T22:29:05.643Z,9.50
2023-06-03T22:31:33.781Z,9.50
2023-06-03T22:34:01.862Z,9.50
2023-06-03T22:36:29.896Z,9.40
2023-06-03T22:38:59.265Z,9.30
2023-06-03T22:41:27.868Z,9.20
2023-06-03T22:43:55.957Z,9.20
2023-06-03T22:46:24.039Z,9.20
2023-06-03T22:48:52.117Z,9.20
2023-06-03T22:51:20.140Z,9.20
2023-06-03T22:53:48.273Z,9.20
2023-06-03T22:56:17.800Z,9.20
2023-06-03T22:58:46.064Z,9.20
2023-06-03T23:01:14.156Z,9.30
2023-06-03T23:03:42.325Z,9.20
2023-06-03T23:06:10.526Z,9.20
2023-06-03T23:08:38.620Z,9.10
2023-06-03T23:11:06.883Z,9.20
2023-06-03T23:13:36.531Z,9.10
2023-06-03T23:16:04.853Z,9.10
2023-06-03T23:18:32.873Z,9.00
2023-06-03T23:21:01.112Z,9.00
2023-06-03T23:23:29.253Z,8.90
2023-06-03T23:25:57.318Z,8.70
2023-06-03T23:28:25.358Z,8.60
2023-06-03T23:30:54.818Z,8.70
2023-06-03T23:33:23.316Z,8.70
2023-06-03T23:35:51.441Z,8.60
2023-06-03T23:38:19.503Z,8.70
2023-06-03T23:40:47.685Z,8.60
2023-06-03T23:43:16.346Z,8.60
2023-06-03T23:45:44.522Z,8.50
2023-06-03T23:48:14.039Z,8.50
2023-06-03T23:50:42.113Z,8.50
2023-06-03T23:53:10.148Z,8.50
2023-06-03T23:55:38.200Z,8.40
2023-06-03T23:58:06.248Z,8.40
